createdAt,value
2022-08-10T00:00:26.242Z,2.00
2022-08-10T00:01:26.604Z,2.50
2022-08-10T00:02:26.866Z,3.40
2022-08-10T00:03:27.168Z,3.70
2022-08-10T00:04:27.491Z,2.80
2022-08-10T00:05:27.826Z,3.10
2022-08-10T00:06:29.153Z,3.70
2022-08-10T00:07:28.423Z,3.70
2022-08-10T00:08:28.757Z,1.90
2022-08-10T00:09:29.081Z,3.70
2022-08-10T00:10:29.431Z,2.00
2022-08-10T00:11:29.638Z,2.70
2022-08-10T00:12:54.025Z,2.40
2022-08-10T00:13:31.289Z,2.10
2022-08-10T00:14:30.574Z,2.50
2022-08-10T00:15:53.076Z,2.90
2022-08-10T00:16:32.223Z,2.70
2022-08-10T00:17:31.509Z,2.10
2022-08-10T00:18:35.997Z,3.30
2022-08-10T00:19:34.850Z,3.20
2022-08-10T00:20:33.388Z,2.90
2022-08-10T00:21:32.649Z,4.00
2022-08-10T00:22:33.113Z,2.90
2022-08-10T00:23:33.303Z,2.30
2022-08-10T00:24:33.507Z,3.00
2022-08-10T00:25:33.846Z,2.40
2022-08-10T00:27:51.974Z,3.30
2022-08-10T00:28:03.331Z,2.00
2022-08-10T00:28:35.820Z,2.70
2022-08-10T00:29:35.077Z,2.40
2022-08-10T00:30:35.407Z,3.20
2022-08-10T00:31:58.278Z,2.90
2022-08-10T00:32:37.057Z,2.80
2022-08-10T00:33:36.317Z,2.20
2022-08-10T00:34:36.648Z,2.60
2022-08-10T00:35:37.021Z,2.70
2022-08-10T00:36:37.218Z,2.90
2022-08-10T00:37:37.542Z,1.90
2022-08-10T00:38:37.858Z,3.00
2022-08-10T00:39:39.449Z,2.20
2022-08-10T00:40:38.539Z,3.10
2022-08-10T00:41:38.853Z,2.40
2022-08-10T00:42:39.176Z,2.70
2022-08-10T00:43:39.514Z,2.90
2022-08-10T00:44:39.835Z,2.30
2022-08-10T00:45:40.181Z,3.60
2022-08-10T00:46:40.511Z,2.40
2022-08-10T00:47:40.837Z,2.90
2022-08-10T00:48:41.154Z,2.90
2022-08-10T00:49:41.493Z,3.10
2022-08-10T00:50:41.844Z,2.00
2022-08-10T00:51:48.629Z,2.60
2022-08-10T00:52:43.374Z,2.30
2022-08-10T00:53:42.613Z,3.00
2022-08-10T00:54:42.934Z,3.20
2022-08-10T00:57:14.303Z,3.00
2022-08-10T00:57:15.695Z,2.80
2022-08-10T00:57:44.913Z,3.00
2022-08-10T00:58:45.258Z,3.50
2022-08-10T00:59:59.323Z,2.80
2022-08-10T01:00:45.870Z,2.60
2022-08-10T01:02:10.132Z,3.20
2022-08-10T01:02:46.510Z,2.50
2022-08-10T01:04:36.535Z,2.40
2022-08-10T01:04:59.981Z,3.00
2022-08-10T01:05:51.361Z,3.10
2022-08-10T01:06:46.648Z,3.70
2022-08-10T01:07:46.977Z,2.90
2022-08-10T01:08:47.281Z,3.20
2022-08-10T01:09:56.913Z,2.70
2022-08-10T01:10:48.941Z,3.70
2022-08-10T01:12:38.115Z,2.60
2022-08-10T01:12:49.759Z,3.40
2022-08-10T01:13:48.841Z,2.20
2022-08-10T01:14:49.142Z,3.70
2022-08-10T01:15:49.472Z,2.30
2022-08-10T01:16:49.813Z,2.80
2022-08-10T01:17:51.465Z,12.50
2022-08-10T01:18:50.440Z,3.20
2022-08-10T01:19:50.777Z,4.00
2022-08-10T01:20:51.142Z,3.00
2022-08-10T01:21:54.314Z,2.90
2022-08-10T01:22:52.661Z,3.30
2022-08-10T01:23:51.923Z,2.60
2022-08-10T01:24:52.243Z,2.60
2022-08-10T01:26:11.392Z,3.00
2022-08-10T01:26:53.924Z,2.60
2022-08-10T01:27:53.188Z,2.80
2022-08-10T01:28:53.517Z,2.90
2022-08-10T01:29:53.840Z,3.70
2022-08-10T01:30:54.204Z,2.30
2022-08-10T01:31:54.433Z,3.20
2022-08-10T01:32:54.762Z,3.40
2022-08-10T01:34:02.332Z,2.70
2022-08-10T01:34:56.393Z,2.90
2022-08-10T01:35:55.676Z,2.90
2022-08-10T01:36:55.877Z,3.00
2022-08-10T01:37:56.199Z,3.40
2022-08-10T01:38:56.532Z,2.90
2022-08-10T01:39:56.867Z,3.90
2022-08-10T01:40:57.201Z,3.50
2022-08-10T01:41:57.517Z,3.30
2022-08-10T01:43:07.405Z,3.80
2022-08-10T01:43:59.128Z,3.70
2022-08-10T01:44:58.454Z,2.90
2022-08-10T01:45:58.793Z,3.20
2022-08-10T01:46:59.107Z,4.00
2022-08-10T01:47:59.433Z,3.50
2022-08-10T01:48:59.754Z,3.70
2022-08-10T01:50:00.092Z,4.00
2022-08-10T01:51:00.711Z,3.10
2022-08-10T01:52:00.914Z,3.10
2022-08-10T01:53:01.005Z,3.70
2022-08-10T01:54:01.324Z,4.50
2022-08-10T01:55:01.638Z,4.40
2022-08-10T01:56:01.972Z,3.60
2022-08-10T01:57:02.248Z,5.00
2022-08-10T01:58:02.575Z,3.70
2022-08-10T01:59:02.905Z,4.00
2022-08-10T02:00:03.648Z,4.60
2022-08-10T02:01:03.652Z,4.20
2022-08-10T02:02:03.857Z,3.40
2022-08-10T02:03:04.192Z,3.50
2022-08-10T02:04:06.120Z,4.00
2022-08-10T02:05:04.817Z,4.30
2022-08-10T02:06:05.194Z,5.30
2022-08-10T02:07:05.469Z,3.30
2022-08-10T02:08:05.814Z,3.80
2022-08-10T02:09:07.110Z,4.60
2022-08-10T02:10:06.470Z,4.90
2022-08-10T02:11:06.791Z,3.40
2022-08-10T02:12:08.737Z,3.90
2022-08-10T02:13:07.378Z,4.30
2022-08-10T02:14:07.713Z,3.70
2022-08-10T02:15:08.026Z,3.70
2022-08-10T02:16:08.370Z,3.90
2022-08-10T02:17:08.720Z,4.40
2022-08-10T02:18:09.023Z,4.00
2022-08-10T02:19:09.351Z,4.60
2022-08-10T02:20:09.645Z,4.20
2022-08-10T02:21:10.024Z,4.30
2022-08-10T02:22:38.246Z,4.90
2022-08-10T02:23:11.530Z,5.00
2022-08-10T02:24:10.814Z,4.40
2022-08-10T02:25:39.689Z,5.50
2022-08-10T02:26:12.479Z,4.20
2022-08-10T02:27:11.731Z,4.90
2022-08-10T02:28:12.072Z,4.90
2022-08-10T02:29:13.407Z,4.90
2022-08-10T02:30:12.663Z,4.10
2022-08-10T02:31:12.995Z,4.80
2022-08-10T02:32:13.292Z,4.00
2022-08-10T02:33:17.207Z,5.10
2022-08-10T02:34:13.864Z,4.10
2022-08-10T02:35:22.293Z,4.30
2022-08-10T02:36:15.427Z,4.30
2022-08-10T02:37:14.696Z,3.90
2022-08-10T02:38:15.045Z,5.10
2022-08-10T02:39:15.390Z,4.50
2022-08-10T02:45:01.377Z,4.60
2022-08-10T02:45:02.252Z,5.10
2022-08-10T02:45:13.075Z,4.10
2022-08-10T02:45:20.365Z,4.30
2022-08-10T02:45:29.822Z,4.20
2022-08-10T02:45:31.084Z,4.60
2022-08-10T02:46:20.994Z,4.20
2022-08-10T02:47:17.839Z,4.50
2022-08-10T02:48:18.177Z,4.40
2022-08-10T02:49:18.388Z,5.00
2022-08-10T02:50:18.715Z,4.80
2022-08-10T02:51:19.057Z,3.90
2022-08-10T02:52:20.367Z,4.00
2022-08-10T02:53:51.489Z,4.20
2022-08-10T02:54:20.913Z,4.90
2022-08-10T02:55:20.160Z,4.60
2022-08-10T02:56:21.467Z,4.00
2022-08-10T02:57:20.727Z,4.30
2022-08-10T03:00:43.427Z,5.70
2022-08-10T03:01:43.674Z,5.30
2022-08-10T03:02:43.993Z,4.60
2022-08-10T03:03:44.495Z,3.80
2022-08-10T03:04:57.296Z,4.40
2022-08-10T03:05:45.996Z,5.10
2022-08-10T03:06:45.285Z,4.00
2022-08-10T03:07:45.494Z,4.30
2022-08-10T03:08:45.825Z,4.40
2022-08-10T03:09:46.164Z,3.70
2022-08-10T03:10:46.506Z,4.70
2022-08-10T03:12:35.507Z,3.90
2022-08-10T03:12:48.652Z,4.10
2022-08-10T03:13:52.441Z,4.40
2022-08-10T03:14:48.815Z,3.70
2022-08-10T03:15:48.262Z,4.20
2022-08-10T03:16:48.426Z,3.70
2022-08-10T03:17:57.729Z,4.60
2022-08-10T03:18:50.062Z,3.90
2022-08-10T03:20:34.988Z,4.00
2022-08-10T03:20:50.651Z,4.50
2022-08-10T03:21:49.918Z,4.10
2022-08-10T03:22:50.258Z,4.10
2022-08-10T03:23:50.579Z,4.20
2022-08-10T03:24:51.889Z,4.20
2022-08-10T03:25:54.285Z,4.20
2022-08-10T03:26:51.380Z,4.20
2022-08-10T03:27:51.795Z,4.60
2022-08-10T03:28:52.153Z,4.50
2022-08-10T03:30:29.545Z,3.50
2022-08-10T03:30:53.764Z,3.80
2022-08-10T03:31:53.053Z,4.30
2022-08-10T03:32:53.805Z,4.00
2022-08-10T03:33:53.564Z,4.20
2022-08-10T03:34:53.832Z,4.10
2022-08-10T03:36:43.671Z,4.00
2022-08-10T03:36:55.435Z,3.50
2022-08-10T03:37:55.831Z,4.00
2022-08-10T03:38:56.082Z,3.80
2022-08-10T03:39:55.490Z,4.10
2022-08-10T03:40:55.596Z,3.80
2022-08-10T03:41:55.863Z,3.80
2022-08-10T03:42:56.099Z,3.70
2022-08-10T03:43:56.336Z,3.90
2022-08-10T03:44:56.576Z,3.60
2022-08-10T03:45:56.871Z,5.60
2022-08-10T03:46:57.085Z,4.00
2022-08-10T03:47:57.319Z,3.90
2022-08-10T03:48:57.670Z,4.30
2022-08-10T03:49:57.958Z,3.80
2022-08-10T03:50:59.316Z,3.80
2022-08-10T03:51:58.626Z,3.70
2022-08-10T03:52:58.861Z,3.80
2022-08-10T03:54:04.839Z,3.30
2022-08-10T03:55:00.358Z,3.90
2022-08-10T03:56:30.133Z,4.50
2022-08-10T03:57:01.021Z,3.50
2022-08-10T03:58:00.329Z,4.30
2022-08-10T03:59:00.601Z,4.00
2022-08-10T04:00:01.050Z,3.70
2022-08-10T04:01:02.119Z,3.80
2022-08-10T04:02:44.344Z,3.90
2022-08-10T04:03:02.630Z,3.40
2022-08-10T04:04:13.023Z,3.80
2022-08-10T04:05:03.263Z,3.60
2022-08-10T04:06:02.653Z,5.50
2022-08-10T04:07:02.882Z,4.10
2022-08-10T04:08:03.132Z,3.80
2022-08-10T04:09:03.385Z,4.40
2022-08-10T04:10:03.622Z,3.70
2022-08-10T04:11:03.890Z,4.40
2022-08-10T04:12:04.144Z,3.00
2022-08-10T04:13:04.405Z,3.90
2022-08-10T04:14:04.665Z,3.90
2022-08-10T04:15:04.927Z,4.20
2022-08-10T04:16:07.605Z,4.90
2022-08-10T04:17:05.450Z,4.90
2022-08-10T04:18:06.463Z,4.40
2022-08-10T04:19:06.126Z,4.10
2022-08-10T04:20:06.249Z,3.80
2022-08-10T04:21:06.506Z,4.80
2022-08-10T04:22:06.749Z,4.40
2022-08-10T04:23:07.032Z,4.90
2022-08-10T04:24:07.343Z,4.50
2022-08-10T04:25:07.502Z,3.50
2022-08-10T04:26:07.979Z,3.80
2022-08-10T04:27:08.179Z,4.10
2022-08-10T04:28:08.514Z,5.10
2022-08-10T04:29:08.810Z,4.70
2022-08-10T04:30:08.883Z,5.20
2022-08-10T04:31:09.150Z,6.60
2022-08-10T04:32:09.463Z,4.10
2022-08-10T04:33:09.700Z,4.50
2022-08-10T04:34:09.989Z,4.90
2022-08-10T04:35:10.221Z,6.20
2022-08-10T04:36:10.500Z,4.80
2022-08-10T04:37:10.763Z,5.40
2022-08-10T04:38:11.032Z,4.40
2022-08-10T04:39:11.300Z,6.00
2022-08-10T04:40:29.332Z,5.00
2022-08-10T04:41:12.846Z,5.30
2022-08-10T04:42:12.154Z,7.60
2022-08-10T04:43:13.493Z,7.50
2022-08-10T04:44:12.725Z,5.10
2022-08-10T04:45:12.994Z,6.70
2022-08-10T04:46:43.005Z,6.80
2022-08-10T04:47:16.925Z,4.90
2022-08-10T04:48:40.551Z,5.00
2022-08-10T04:49:54.306Z,6.10
2022-08-10T04:50:15.287Z,6.10
2022-08-10T04:51:17.940Z,4.80
2022-08-10T04:52:14.918Z,4.50
2022-08-10T04:53:29.024Z,6.10
2022-08-10T04:54:15.955Z,5.70
2022-08-10T04:55:15.717Z,5.10
2022-08-10T04:56:15.975Z,4.90
2022-08-10T04:57:16.253Z,5.10
2022-08-10T04:58:16.693Z,5.60
2022-08-10T04:59:16.792Z,5.30
2022-08-10T05:00:19.018Z,5.40
2022-08-10T05:01:21.804Z,5.60
2022-08-10T05:02:29.206Z,5.40
2022-08-10T05:03:18.830Z,5.00
2022-08-10T05:04:37.948Z,4.90
2022-08-10T05:05:19.381Z,5.30
2022-08-10T05:06:18.696Z,5.20
2022-08-10T05:07:18.936Z,5.10
2022-08-10T05:08:19.205Z,5.10
2022-08-10T05:09:19.457Z,5.20
2022-08-10T05:10:19.756Z,4.80
2022-08-10T05:11:23.714Z,4.80
2022-08-10T05:12:20.269Z,5.10
2022-08-10T05:13:20.537Z,3.90
2022-08-10T05:14:20.828Z,4.60
2022-08-10T05:15:21.079Z,4.90
2022-08-10T05:16:32.047Z,4.80
2022-08-10T05:17:22.560Z,4.80
2022-08-10T05:18:21.877Z,4.20
2022-08-10T05:20:02.314Z,4.80
2022-08-10T05:20:24.428Z,5.50
2022-08-10T05:21:56.365Z,4.00
2022-08-10T05:22:23.971Z,4.10
2022-08-10T05:23:23.409Z,4.70
2022-08-10T05:24:23.575Z,6.00
2022-08-10T05:25:23.866Z,4.50
2022-08-10T05:26:24.161Z,4.60
2022-08-10T05:27:24.422Z,4.30
2022-08-10T05:28:24.692Z,4.40
2022-08-10T05:29:26.094Z,3.30
2022-08-10T05:30:25.346Z,3.50
2022-08-10T05:31:25.616Z,4.90
2022-08-10T05:32:26.008Z,3.40
2022-08-10T05:33:27.182Z,3.20
2022-08-10T05:34:26.423Z,3.60
2022-08-10T05:35:27.143Z,3.40
2022-08-10T05:36:27.015Z,2.60
2022-08-10T05:38:08.898Z,3.40
2022-08-10T05:38:28.785Z,3.50
2022-08-10T05:39:31.024Z,3.40
2022-08-10T05:40:28.106Z,2.80
2022-08-10T05:41:28.388Z,4.00
2022-08-10T05:42:28.701Z,3.80
2022-08-10T05:43:29.049Z,4.80
2022-08-10T05:44:29.343Z,2.30
2022-08-10T05:45:29.570Z,3.20
2022-08-10T05:46:29.884Z,3.90
2022-08-10T05:48:40.546Z,2.60
2022-08-10T05:48:41.678Z,2.90
2022-08-10T05:49:31.780Z,4.90
2022-08-10T05:50:31.181Z,3.20
2022-08-10T05:51:31.540Z,3.90
2022-08-10T05:52:31.613Z,3.20
2022-08-10T05:54:03.162Z,4.00
2022-08-10T05:54:33.104Z,2.90
2022-08-10T05:55:32.353Z,2.70
2022-08-10T05:56:53.723Z,3.80
2022-08-10T05:57:33.975Z,3.80
2022-08-10T05:58:33.176Z,3.30
2022-08-10T06:00:34.487Z,2.70
2022-08-10T06:00:41.694Z,2.90
2022-08-10T06:01:35.243Z,2.30
2022-08-10T06:02:35.806Z,3.70
2022-08-10T06:03:34.879Z,2.70
2022-08-10T06:04:34.952Z,2.70
2022-08-10T06:05:35.342Z,2.30
2022-08-10T06:06:35.508Z,2.50
2022-08-10T06:07:35.969Z,3.50
2022-08-10T06:08:36.009Z,4.90
2022-08-10T06:09:36.353Z,3.10
2022-08-10T06:10:50.854Z,2.60
2022-08-10T06:12:27.947Z,3.00
2022-08-10T06:12:54.414Z,3.10
2022-08-10T06:14:06.108Z,2.70
2022-08-10T06:14:38.836Z,3.60
2022-08-10T06:15:51.866Z,2.20
2022-08-10T06:16:39.488Z,2.50
2022-08-10T06:17:38.692Z,2.60
2022-08-10T06:18:38.898Z,4.90
2022-08-10T06:19:39.865Z,3.30
2022-08-10T06:20:39.340Z,3.10
2022-08-10T06:21:39.730Z,2.10
2022-08-10T06:22:40.858Z,2.60
2022-08-10T06:23:40.201Z,2.90
2022-08-10T06:33:40.609Z,1.80
2022-08-10T06:34:43.020Z,1.90
2022-08-10T06:35:40.079Z,1.70
2022-08-10T06:36:40.227Z,2.30
2022-08-10T06:37:40.509Z,2.60
2022-08-10T06:38:40.808Z,2.60
2022-08-10T06:39:41.167Z,2.20
2022-08-10T06:40:41.350Z,2.60
2022-08-10T06:41:57.823Z,2.20
2022-08-10T06:42:42.964Z,2.10
2022-08-10T06:43:42.184Z,3.70
2022-08-10T06:44:42.472Z,3.90
2022-08-10T06:45:42.754Z,2.80
2022-08-10T06:46:46.237Z,3.20
2022-08-10T06:47:44.259Z,6.90
2022-08-10T06:48:43.655Z,4.70
2022-08-10T06:49:43.954Z,5.40
2022-08-10T06:50:58.054Z,7.50
2022-08-10T06:51:45.586Z,2.70
2022-08-10T06:52:45.900Z,3.90
2022-08-10T06:53:53.727Z,4.00
2022-08-10T06:54:46.460Z,3.40
2022-08-10T06:55:55.596Z,4.90
2022-08-10T06:57:08.165Z,3.90
2022-08-10T06:58:00.087Z,3.30
2022-08-10T06:58:47.560Z,3.10
2022-08-10T06:59:49.097Z,2.70
2022-08-10T07:00:47.166Z,3.20
2022-08-10T07:01:51.396Z,2.50
2022-08-10T07:02:47.669Z,3.70
2022-08-10T07:03:47.922Z,2.80
2022-08-10T07:04:48.173Z,4.10
2022-08-10T07:05:51.235Z,4.30
2022-08-10T07:06:48.794Z,5.90
2022-08-10T07:07:49.034Z,2.70
2022-08-10T07:08:49.265Z,5.00
2022-08-10T07:09:49.537Z,2.90
2022-08-10T07:10:49.873Z,3.10
2022-08-10T07:11:50.127Z,3.20
2022-08-10T07:12:50.418Z,5.50
2022-08-10T07:14:16.569Z,4.70
2022-08-10T07:14:51.928Z,4.40
2022-08-10T07:15:57.288Z,3.10
2022-08-10T07:16:52.482Z,2.90
2022-08-10T07:17:51.986Z,3.60
2022-08-10T07:18:52.068Z,3.40
2022-08-10T07:19:52.818Z,3.90
2022-08-10T07:20:52.741Z,4.60
2022-08-10T07:21:52.953Z,3.10
2022-08-10T07:23:08.628Z,3.70
2022-08-10T07:23:59.611Z,5.30
2022-08-10T07:24:54.789Z,2.60
2022-08-10T07:25:54.015Z,2.40
2022-08-10T07:26:54.279Z,2.60
2022-08-10T07:28:00.390Z,2.70
2022-08-10T07:28:55.918Z,4.00
2022-08-10T07:29:55.150Z,2.80
2022-08-10T07:30:55.475Z,3.70
2022-08-10T07:31:57.673Z,4.90
2022-08-10T07:32:56.036Z,3.00
2022-08-10T07:33:56.316Z,5.90
2022-08-10T07:34:56.598Z,4.70
2022-08-10T07:35:56.925Z,4.60
2022-08-10T07:36:57.217Z,3.50
2022-08-10T07:37:57.487Z,3.00
2022-08-10T07:38:57.733Z,2.70
2022-08-10T07:40:04.347Z,2.70
2022-08-10T07:40:59.349Z,2.70
2022-08-10T07:41:58.566Z,2.20
2022-08-10T07:42:58.819Z,2.30
2022-08-10T07:43:59.111Z,3.20
2022-08-10T07:44:59.361Z,3.60
2022-08-10T07:45:59.665Z,2.30
2022-08-10T07:46:59.938Z,2.60
2022-08-10T07:48:05.142Z,2.70
2022-08-10T07:49:01.753Z,2.60
2022-08-10T07:50:01.752Z,2.30
2022-08-10T07:51:01.162Z,3.00
2022-08-10T07:52:01.313Z,2.00
2022-08-10T07:53:01.630Z,2.40
2022-08-10T07:54:01.924Z,4.50
2022-08-10T07:55:02.186Z,11.70
2022-08-10T07:56:13.354Z,3.10
2022-08-10T07:57:03.725Z,2.60
2022-08-10T07:58:03.097Z,2.20
2022-08-10T07:59:03.358Z,4.30
2022-08-10T08:00:04.460Z,2.70
2022-08-10T08:01:03.986Z,4.10
2022-08-10T08:02:04.357Z,2.90
2022-08-10T08:03:04.519Z,2.30
2022-08-10T08:04:11.082Z,2.30
2022-08-10T08:05:06.091Z,3.10
2022-08-10T08:06:12.028Z,3.70
2022-08-10T08:07:06.551Z,2.40
2022-08-10T08:08:05.740Z,2.80
2022-08-10T08:09:06.004Z,2.10
2022-08-10T08:10:06.282Z,2.40
2022-08-10T08:11:06.606Z,2.30
2022-08-10T08:12:06.895Z,4.80
2022-08-10T08:13:07.206Z,2.50
2022-08-10T08:14:07.490Z,3.20
2022-08-10T08:16:14.310Z,2.70
2022-08-10T08:16:17.680Z,3.60
2022-08-10T08:17:09.285Z,4.10
2022-08-10T08:18:08.616Z,4.20
2022-08-10T08:19:26.761Z,4.00
2022-08-10T08:20:10.117Z,2.70
2022-08-10T08:21:16.018Z,2.60
2022-08-10T08:24:04.976Z,2.00
2022-08-10T08:24:09.881Z,2.10
2022-08-10T08:24:30.306Z,2.20
2022-08-10T08:25:14.585Z,2.60
2022-08-10T08:26:10.791Z,2.80
2022-08-10T08:27:11.123Z,4.40
2022-08-10T08:28:11.420Z,2.60
2022-08-10T08:29:11.740Z,3.20
2022-08-10T08:30:12.779Z,2.20
2022-08-10T08:31:12.426Z,2.40
2022-08-10T08:32:12.625Z,2.30
2022-08-10T08:33:19.833Z,2.90
2022-08-10T08:34:14.203Z,2.60
2022-08-10T08:35:13.432Z,3.70
2022-08-10T08:36:13.712Z,2.50
2022-08-10T08:37:18.787Z,2.80
2022-08-10T08:38:32.852Z,2.30
2022-08-10T08:39:15.552Z,2.80
2022-08-10T08:40:14.752Z,5.00
2022-08-10T08:41:15.005Z,2.00
2022-08-10T08:42:15.279Z,2.10
2022-08-10T08:43:15.606Z,4.00
2022-08-10T08:44:15.877Z,3.80
2022-08-10T08:45:16.228Z,5.10
2022-08-10T08:46:16.691Z,3.20
2022-08-10T08:48:02.144Z,2.80
2022-08-10T08:48:18.088Z,2.80
2022-08-10T08:50:04.560Z,3.20
2022-08-10T08:50:18.811Z,2.80
2022-08-10T08:52:09.647Z,3.00
2022-08-10T08:52:19.330Z,2.90
2022-08-10T08:53:22.417Z,2.00
2022-08-10T08:54:18.936Z,3.40
2022-08-10T08:56:02.918Z,2.90
2022-08-10T08:56:20.522Z,3.10
2022-08-10T08:57:49.074Z,2.40
2022-08-10T08:59:36.572Z,3.20
2022-08-10T09:00:36.676Z,3.70
2022-08-10T09:01:40.531Z,2.20
2022-08-10T09:02:37.373Z,3.40
2022-08-10T09:03:37.590Z,3.20
2022-08-10T09:04:37.810Z,3.00
2022-08-10T09:05:58.292Z,3.90
2022-08-10T09:06:39.257Z,4.50
2022-08-10T09:07:59.311Z,4.80
2022-08-10T09:08:39.820Z,4.10
2022-08-10T09:09:39.150Z,3.90
2022-08-10T09:10:39.450Z,3.80
2022-08-10T09:11:39.738Z,2.40
2022-08-10T09:12:40.020Z,2.80
2022-08-10T09:13:40.293Z,3.90
2022-08-10T09:14:40.578Z,2.70
2022-08-10T09:15:41.578Z,2.60
2022-08-10T09:16:41.190Z,2.30
2022-08-10T09:17:41.440Z,2.30
2022-08-10T09:18:41.731Z,3.40
2022-08-10T09:19:41.997Z,2.50
2022-08-10T09:20:42.284Z,3.40
2022-08-10T09:21:43.141Z,2.90
2022-08-10T09:22:43.781Z,4.20
2022-08-10T09:24:01.956Z,3.50
2022-08-10T09:24:44.490Z,2.60
2022-08-10T09:25:43.685Z,2.30
2022-08-10T09:26:43.984Z,3.60
2022-08-10T09:27:44.215Z,2.40
2022-08-10T09:28:45.597Z,2.90
2022-08-10T09:29:45.888Z,3.20
2022-08-10T09:31:03.701Z,2.70
2022-08-10T09:32:57.413Z,7.00
2022-08-10T09:36:15.355Z,2.00
2022-08-10T09:36:20.910Z,4.20
2022-08-10T09:36:25.755Z,2.70
2022-08-10T09:36:26.174Z,3.20
2022-08-10T09:36:47.640Z,3.80
2022-08-10T09:38:01.844Z,2.60
2022-08-10T09:38:48.331Z,2.90
2022-08-10T09:40:56.112Z,6.00
2022-08-10T09:40:59.481Z,4.00
2022-08-10T09:41:49.198Z,3.80
2022-08-10T09:43:07.674Z,3.40
2022-08-10T09:43:49.754Z,2.70
2022-08-10T09:44:58.269Z,3.10
2022-08-10T09:45:50.318Z,2.90
2022-08-10T09:46:49.642Z,2.30
2022-08-10T09:48:02.068Z,3.00
2022-08-10T09:48:51.286Z,3.00
2022-08-10T09:49:55.267Z,3.40
2022-08-10T09:51:52.210Z,5.30
2022-08-10T09:52:58.499Z,6.10
2022-08-10T09:53:52.818Z,4.00
2022-08-10T09:54:52.038Z,2.40
2022-08-10T09:56:19.143Z,2.50
2022-08-10T09:56:53.632Z,2.00
2022-08-10T09:57:54.805Z,2.60
2022-08-10T09:59:29.392Z,2.40
2022-08-10T10:00:00.337Z,2.40
2022-08-10T10:00:54.658Z,2.00
2022-08-10T10:02:03.347Z,2.80
2022-08-10T10:02:55.243Z,2.60
2022-08-10T10:03:54.434Z,2.80
2022-08-10T10:04:54.727Z,3.50
2022-08-10T10:05:54.983Z,1.70
2022-08-10T10:06:55.270Z,1.90
2022-08-10T10:07:55.537Z,2.40
2022-08-10T10:08:58.471Z,2.20
2022-08-10T10:09:57.075Z,3.00
2022-08-10T10:10:56.382Z,2.40
2022-08-10T10:11:56.667Z,4.70
2022-08-10T10:12:57.887Z,1.70
2022-08-10T10:14:03.335Z,2.30
2022-08-10T10:14:58.536Z,2.00
2022-08-10T10:15:57.899Z,2.40
2022-08-10T10:16:58.167Z,2.30
2022-08-10T10:17:58.449Z,3.00
2022-08-10T10:18:58.750Z,2.40
2022-08-10T10:19:59.020Z,1.80
2022-08-10T10:20:59.270Z,2.00
2022-08-10T10:21:59.535Z,4.90
2022-08-10T10:22:59.840Z,3.20
2022-08-10T10:24:21.166Z,2.50
2022-08-10T10:25:01.346Z,2.40
2022-08-10T10:26:05.040Z,3.10
2022-08-10T10:27:03.537Z,2.50
2022-08-10T10:28:01.307Z,3.60
2022-08-10T10:29:44.866Z,1.30
2022-08-10T10:30:02.819Z,1.70
2022-08-10T10:31:02.142Z,1.50
2022-08-10T10:32:02.437Z,1.30
2022-08-10T10:33:02.686Z,2.60
2022-08-10T10:34:02.957Z,2.20
2022-08-10T10:35:03.264Z,2.60
2022-08-10T10:36:03.547Z,0.90
2022-08-10T10:37:03.818Z,2.60
2022-08-10T10:38:04.198Z,1.60
2022-08-10T10:39:04.333Z,2.20
2022-08-10T10:40:04.638Z,1.50
2022-08-10T10:41:05.203Z,1.70
2022-08-10T10:42:05.187Z,1.80
2022-08-10T10:43:05.482Z,1.70
2022-08-10T10:44:05.782Z,2.30
2022-08-10T10:45:06.061Z,1.30
2022-08-10T10:46:06.346Z,1.80
2022-08-10T10:47:06.624Z,1.30
2022-08-10T10:48:06.904Z,1.70
2022-08-10T10:49:07.190Z,1.70
2022-08-10T10:50:07.444Z,1.60
2022-08-10T10:51:10.655Z,2.30
2022-08-10T10:52:08.043Z,1.90
2022-08-10T10:53:08.334Z,2.70
2022-08-10T10:54:08.608Z,1.40
2022-08-10T10:55:08.908Z,1.50
2022-08-10T10:56:15.105Z,1.10
2022-08-10T10:57:10.466Z,1.00
2022-08-10T10:58:10.537Z,2.20
2022-08-10T10:59:33.290Z,1.50
2022-08-10T11:00:11.305Z,2.20
2022-08-10T11:01:10.585Z,2.10
2022-08-10T11:02:10.736Z,1.20
2022-08-10T11:03:11.044Z,1.50
2022-08-10T11:04:11.323Z,1.90
2022-08-10T11:05:11.636Z,2.70
2022-08-10T11:06:11.900Z,1.60
2022-08-10T11:07:13.158Z,2.10
2022-08-10T11:08:14.491Z,3.60
2022-08-10T11:10:08.624Z,1.60
2022-08-10T11:10:33.047Z,1.60
2022-08-10T11:11:25.367Z,2.80
2022-08-10T11:12:14.755Z,1.30
2022-08-10T11:14:24.408Z,2.00
2022-08-10T11:14:26.345Z,1.40
2022-08-10T11:15:15.582Z,1.60
2022-08-10T11:16:14.791Z,1.40
2022-08-10T11:17:15.067Z,3.30
2022-08-10T11:18:15.336Z,1.30
2022-08-10T11:19:15.677Z,1.10
2022-08-10T11:20:15.997Z,0.80
2022-08-10T11:21:16.289Z,1.90
2022-08-10T11:22:16.620Z,1.60
2022-08-10T11:23:16.856Z,1.60
2022-08-10T11:24:47.343Z,2.50
2022-08-10T11:25:18.532Z,1.20
2022-08-10T11:26:17.752Z,1.00
2022-08-10T11:27:21.847Z,1.50
2022-08-10T11:28:18.341Z,1.20
2022-08-10T11:29:18.621Z,1.30
2022-08-10T11:30:18.904Z,1.60
2022-08-10T11:31:19.185Z,2.60
2022-08-10T11:32:20.333Z,1.90
2022-08-10T11:33:30.563Z,2.00
2022-08-10T11:34:46.924Z,1.90
2022-08-10T11:35:21.205Z,1.90
2022-08-10T11:36:20.526Z,1.30
2022-08-10T11:37:20.837Z,1.30
2022-08-10T11:38:33.059Z,2.00
2022-08-10T11:39:22.535Z,1.00
2022-08-10T11:40:22.064Z,1.10
2022-08-10T11:42:07.079Z,2.20
2022-08-10T11:42:31.600Z,1.40
2022-08-10T11:43:23.700Z,1.10
2022-08-10T11:44:23.221Z,1.40
2022-08-10T11:45:23.559Z,1.00
2022-08-10T11:46:28.677Z,5.40
2022-08-10T11:47:25.091Z,0.80
2022-08-10T11:48:53.723Z,1.70
2022-08-10T11:49:25.628Z,2.40
2022-08-10T11:50:25.000Z,0.90
2022-08-10T11:51:25.183Z,1.30
2022-08-10T11:52:25.513Z,1.10
2022-08-10T11:53:25.784Z,1.50
2022-08-10T11:54:26.108Z,0.90
2022-08-10T11:55:26.483Z,1.20
2022-08-10T11:56:27.274Z,1.70
2022-08-10T11:58:02.977Z,1.80
2022-08-10T11:58:27.329Z,1.50
2022-08-10T11:59:27.607Z,2.70
2022-08-10T12:00:29.387Z,2.80
2022-08-10T12:01:28.351Z,2.50
2022-08-10T12:10:02.056Z,1.60
2022-08-10T12:13:05.615Z,1.60
2022-08-10T12:26:53.835Z,0.80
2022-08-10T12:29:12.794Z,0.80
2022-08-10T12:34:25.200Z,1.00
2022-08-10T12:35:26.783Z,1.20
2022-08-10T12:41:43.725Z,1.40
2022-08-10T12:53:26.480Z,1.50
2022-08-10T13:19:55.276Z,2.30
2022-08-10T13:49:19.479Z,1.90
2022-08-10T13:50:19.855Z,1.80
2022-08-10T13:51:22.138Z,1.20
2022-08-10T13:52:21.349Z,1.50
2022-08-10T13:53:20.650Z,1.90
2022-08-10T13:54:20.889Z,1.30
2022-08-10T13:55:21.150Z,1.60
2022-08-10T13:56:21.412Z,2.70
2022-08-10T13:57:21.641Z,1.30
2022-08-10T13:58:21.953Z,1.10
2022-08-10T13:59:22.195Z,2.20
2022-08-10T14:00:34.870Z,1.60
2022-08-10T14:01:23.849Z,2.00
2022-08-10T14:02:23.025Z,2.10
2022-08-10T14:03:23.297Z,1.10
2022-08-10T14:04:23.546Z,1.80
2022-08-10T14:05:23.840Z,1.40
2022-08-10T14:06:29.579Z,1.00
2022-08-10T14:07:25.316Z,1.40
2022-08-10T14:08:24.608Z,1.20
2022-08-10T14:09:24.841Z,2.00
2022-08-10T14:11:02.118Z,3.00
2022-08-10T14:11:26.318Z,3.00
2022-08-10T14:12:32.253Z,2.10
2022-08-10T14:13:26.939Z,2.30
2022-08-10T14:14:26.230Z,1.90
2022-08-10T14:15:26.481Z,1.00
2022-08-10T14:16:26.731Z,2.10
2022-08-10T14:17:26.972Z,1.30
2022-08-10T14:18:27.204Z,1.30
2022-08-10T14:19:27.714Z,1.10
2022-08-10T14:20:27.712Z,1.10
2022-08-10T14:21:27.965Z,0.90
2022-08-10T14:22:33.682Z,1.90
2022-08-10T14:23:29.539Z,1.20
2022-08-10T14:24:28.854Z,1.10
2022-08-10T14:25:29.107Z,1.90
2022-08-10T14:26:29.380Z,1.10
2022-08-10T14:28:02.333Z,1.20
2022-08-10T14:28:30.837Z,2.90
2022-08-10T14:29:30.135Z,0.90
2022-08-10T14:30:31.107Z,2.30
2022-08-10T14:31:30.657Z,2.60
2022-08-10T14:32:30.912Z,2.40
2022-08-10T14:33:31.158Z,2.30
2022-08-10T14:36:16.610Z,1.20
2022-08-10T14:36:18.692Z,0.90
2022-08-10T14:36:33.004Z,1.80
2022-08-10T14:37:33.131Z,1.30
2022-08-10T14:38:33.616Z,1.50
2022-08-10T14:39:32.988Z,1.80
2022-08-10T14:40:33.253Z,1.00
2022-08-10T14:42:03.769Z,1.70
2022-08-10T14:42:34.811Z,2.80
2022-08-10T14:43:34.108Z,2.50
2022-08-10T14:44:34.363Z,1.90
2022-08-10T14:45:34.596Z,2.10
2022-08-10T14:46:34.845Z,1.20
2022-08-10T14:47:53.657Z,2.00
2022-08-10T14:48:36.420Z,0.90
2022-08-10T14:49:57.475Z,1.90
2022-08-10T14:50:37.039Z,1.60
2022-08-10T14:51:43.901Z,2.70
2022-08-10T14:52:37.646Z,3.00
2022-08-10T14:53:36.958Z,3.30
2022-08-10T14:54:37.220Z,2.60
2022-08-10T14:55:57.672Z,4.10
2022-08-10T14:56:38.811Z,1.60
2022-08-10T14:58:16.756Z,1.60
2022-08-10T15:00:20.988Z,2.30
2022-08-10T15:00:56.223Z,2.30
2022-08-10T15:02:00.720Z,1.70
2022-08-10T15:02:58.358Z,1.70
2022-08-10T15:04:00.738Z,1.60
2022-08-10T15:04:57.334Z,1.40
2022-08-10T15:05:59.032Z,0.90
2022-08-10T15:06:57.623Z,1.80
2022-08-10T15:07:59.235Z,1.10
2022-08-10T15:08:57.401Z,2.70
2022-08-10T15:10:01.816Z,2.30
2022-08-10T15:10:58.966Z,1.50
2022-08-10T15:12:12.934Z,1.30
2022-08-10T15:12:59.597Z,3.70
2022-08-10T15:14:41.489Z,4.70
2022-08-10T15:15:00.819Z,2.00